Time;durP1;ratioP1;P1;durP2;ratioP2;P2;SDS_P1;SDS_P2;PMS_P1;PMS_P2;Temp;Humidity;BMP_temperature;BMP_pressure;BME280_temperature;BME280_humidity;BME280_pressure;Samples;Min_cycle;Max_cycle;Signal;HPM_P1;HPM_P2
2021/11/12 00:13:12;;;;;;;;;81.75;63.50;;;;;4.62;71.15;101451.72;5077195;28;45391;-61
2021/11/12 00:15:45;;;;;;;;;81.75;59.50;;;;;4.62;71.09;101446.53;5076575;28;45837;-61
2021/11/12 00:18:11;;;;;;;;;79.25;59.25;;;;;4.62;71.38;101451.72;5077168;27;45376;-61
2021/11/12 00:20:36;;;;;;;;;78.25;57.25;;;;;4.62;71.09;101451.72;5077170;28;45157;-60
2021/11/12 00:23:01;;;;;;;;;73.50;54.00;;;;;4.62;71.51;101454.34;5075991;28;67791;-61
2021/11/12 00:25:27;;;;;;;;;73.50;53.50;;;;;4.60;71.56;101449.19;5075773;28;71048;-61
2021/11/12 00:27:52;;;;;;;;;73.25;54.25;;;;;4.61;71.49;101453.47;5076154;27;67541;-61
2021/11/12 00:33:03;;;;;;;;;73.25;56.00;;;;;4.59;71.63;101453.56;5076894;27;45219;-60
2021/11/12 00:37:59;;;;;;;;;72.75;54.50;;;;;4.55;71.78;101446.81;5076826;28;45308;-61
2021/11/12 00:40:36;;;;;;;;;75.50;55.00;;;;;4.55;72.04;101444.22;5076805;27;45280;-61
2021/11/12 00:45:32;;;;;;;;;76.75;54.00;;;;;4.53;71.75;101434.78;5076504;28;45476;-61
2021/11/12 00:48:09;;;;;;;;;74.50;54.00;;;;;4.53;71.82;101424.38;5076684;28;45280;-61
2021/11/12 00:55:39;;;;;;;;;76.00;56.00;;;;;4.55;71.85;101433.81;5076577;28;45449;-61
2021/11/12 00:58:05;;;;;;;;;82.25;57.25;;;;;4.57;72.08;101434.56;5076891;28;45384;-61
2021/11/12 01:00:31;;;;;;;;;71.00;55.25;;;;;4.58;71.92;101438.88;5076763;28;45295;-61
2021/11/12 01:02:56;;;;;;;;;74.75;58.00;;;;;4.56;71.77;101430.28;5076632;28;45412;-61
2021/11/12 01:05:22;;;;;;;;;75.75;56.00;;;;;4.56;71.57;101443.31;5075031;28;45365;-60
2021/11/12 01:07:47;;;;;;;;;69.50;53.50;;;;;4.57;71.94;101441.53;5076708;28;45249;-61
2021/11/12 01:10:14;;;;;;;;;69.75;52.75;;;;;4.57;71.57;101439.78;5075571;28;64570;-61
2021/11/12 01:12:40;;;;;;;;;69.50;52.75;;;;;4.52;71.73;101433.97;5076256;28;45301;-60
2021/11/12 01:15:07;;;;;;;;;70.00;50.00;;;;;4.49;72.09;101433.28;5075980;28;45298;-60
2021/11/12 01:17:32;;;;;;;;;66.50;49.50;;;;;4.48;71.77;101429.00;5076423;27;45201;-61
2021/11/12 01:19:58;;;;;;;;;72.00;52.00;;;;;4.44;71.58;101431.75;5075341;28;65632;-61
2021/11/12 01:22:23;;;;;;;;;68.00;51.50;;;;;4.39;72.00;101425.03;5075733;28;56352;-60
2021/11/12 01:24:49;;;;;;;;;70.25;50.00;;;;;4.35;71.73;101424.38;5075342;28;64908;-61
2021/11/12 01:27:14;;;;;;;;;63.75;49.75;;;;;4.30;71.88;101429.78;5076036;28;45416;-60
2021/11/12 01:29:39;;;;;;;;;62.00;48.50;;;;;4.23;72.05;101417.16;5078363;28;68374;-61
2021/11/12 01:32:25;;;;;;;;;59.25;45.75;;;;;4.19;72.11;101406.06;5078711;27;71549;-61
2021/11/12 01:34:53;;;;;;;;;57.75;43.00;;;;;4.15;72.16;101412.31;5079887;28;45346;-61
2021/11/12 01:37:21;;;;;;;;;58.50;44.75;;;;;4.11;72.27;101409.00;5079639;27;45346;-61
2021/11/12 01:39:51;;;;;;;;;53.75;41.75;;;;;4.11;72.52;101415.97;5079659;27;45228;-61
2021/11/12 01:42:18;;;;;;;;;57.25;42.50;;;;;4.08;72.68;101411.75;5079583;27;45393;-61
2021/11/12 01:44:48;;;;;;;;;56.25;39.75;;;;;4.08;72.83;101403.94;5079469;27;45373;-60
2021/11/12 01:50:04;;;;;;;;;55.25;38.25;;;;;4.07;72.90;101407.47;5079746;28;45450;-61
2021/11/12 01:52:39;;;;;;;;;55.50;39.50;;;;;4.08;72.79;101406.53;5079537;28;46230;-61
2021/11/12 01:57:50;;;;;;;;;44.50;36.00;;;;;4.06;73.00;101397.97;5079402;28;45178;-61
2021/11/12 02:00:18;;;;;;;;;39.75;34.50;;;;;4.07;72.82;101394.44;5078068;28;45226;-60
2021/11/12 02:02:43;;;;;;;;;42.00;36.00;;;;;4.06;72.92;101397.13;5079152;28;46210;-61
2021/11/12 02:05:09;;;;;;;;;37.25;31.25;;;;;4.05;72.83;101396.28;5079199;27;45382;-61
2021/11/12 02:07:35;;;;;;;;;41.75;34.00;;;;;4.01;72.81;101392.13;5079221;27;45327;-61
2021/11/12 02:10:14;;;;;;;;;36.75;30.00;;;;;3.97;72.86;101391.44;5079310;28;45488;-60
2021/11/12 02:15:16;;;;;;;;;35.25;28.25;;;;;3.97;72.73;101382.81;5079184;28;45367;-61
2021/11/12 02:17:46;;;;;;;;;31.25;29.50;;;;;3.95;72.55;101388.06;5078501;27;63681;-61
2021/11/12 02:20:19;;;;;;;;;33.50;27.25;;;;;3.93;72.40;101383.88;5079142;28;45358;-61
2021/11/12 02:22:47;;;;;;;;;30.00;26.00;;;;;3.88;72.67;101378.88;5077804;28;46322;-60
2021/11/12 02:25:25;;;;;;;;;35.50;25.50;;;;;3.86;72.21;101378.09;5079281;27;45322;-60
2021/11/12 02:27:59;;;;;;;;;34.75;28.00;;;;;3.85;71.92;101366.03;5079072;28;45159;-61
2021/11/12 02:30:27;;;;;;;;;35.00;25.25;;;;;3.82;71.90;101366.16;5079085;28;45462;-60
2021/11/12 02:32:56;;;;;;;;;34.25;25.75;;;;;3.80;71.96;101368.00;5077477;28;46601;-60
2021/11/12 02:35:21;;;;;;;;;34.00;26.00;;;;;3.78;72.10;101367.22;5078957;27;45814;-61
2021/11/12 02:37:47;;;;;;;;;26.75;24.75;;;;;3.77;71.97;101368.13;5078078;27;63860;-61
2021/11/12 02:40:12;;;;;;;;;34.00;31.00;;;;;3.75;72.00;101369.97;5077787;27;62964;-61
2021/11/12 02:42:38;;;;;;;;;32.25;25.50;;;;;3.72;72.21;101365.75;5078207;28;63229;-61
2021/11/12 02:45:03;;;;;;;;;34.50;26.25;;;;;3.68;72.11;101372.00;5077963;28;64009;-61
2021/11/12 02:47:29;;;;;;;;;26.00;21.25;;;;;3.65;72.07;101373.00;5077407;28;45255;-61
2021/11/12 02:49:57;;;;;;;;;31.50;24.75;;;;;3.63;72.26;101361.84;5078827;28;45591;-61
2021/11/12 02:52:22;;;;;;;;;36.75;25.50;;;;;3.62;72.21;101362.75;5078613;27;45401;-61
2021/11/12 02:54:48;;;;;;;;;30.25;24.25;;;;;3.63;72.54;101358.38;5077739;28;66095;-61
2021/11/12 02:57:14;;;;;;;;;32.50;27.25;;;;;3.61;72.58;101358.47;5077539;27;45486;-60
2021/11/12 02:59:39;;;;;;;;;34.75;26.75;;;;;3.60;72.61;101361.13;5078676;27;45621;-61
2021/11/12 03:02:07;;;;;;;;;28.00;25.75;;;;;3.59;72.47;101362.03;5078292;27;48046;-61
2021/11/12 03:04:32;;;;;;;;;35.50;25.75;;;;;3.59;72.82;101357.69;5077363;28;45315;-61
2021/11/12 03:06:58;;;;;;;;;28.50;25.25;;;;;3.57;72.54;101362.13;5077780;27;64388;-61
2021/11/12 03:09:25;;;;;;;;;30.50;28.00;;;;;3.56;72.46;101360.44;5077269;28;45590;-60
2021/11/12 03:11:51;;;;;;;;;37.00;26.75;;;;;3.53;72.46;101347.56;5078236;28;48292;-60
2021/11/12 03:14:16;;;;;;;;;31.00;28.75;;;;;3.50;72.38;101356.34;5078295;28;45777;-61
2021/11/12 03:16:42;;;;;;;;;32.00;26.25;;;;;3.49;72.40;101356.41;5078483;27;45454;-60
2021/11/12 03:19:08;;;;;;;;;26.25;23.00;;;;;3.46;72.49;101343.56;5078122;28;45242;-61
2021/11/12 03:21:34;;;;;;;;;34.75;23.75;;;;;3.42;72.04;101343.69;5078146;27;46207;-61
2021/11/12 04:02:05;;;;;;;;;34.25;23.00;;;;;3.07;71.75;101333.16;5077777;28;45239;-61
2021/11/12 04:18:17;;;;;;;;;26.00;21.00;;;;;3.02;72.01;101309.16;5077286;28;45927;-61
2021/11/12 04:40:13;;;;;;;;;27.50;20.00;;;;;3.07;72.07;101275.16;5076953;28;45304;-61
2021/11/12 05:34:42;;;;;;;;;20.50;18.50;;;;;2.92;71.42;101199.66;5076318;28;45953;-61
2021/11/12 05:45:45;;;;;;;;;22.00;19.25;;;;;2.92;71.81;101199.66;5076159;28;45807;-60
2021/11/12 05:56:22;;;;;;;;;26.25;20.25;;;;;2.91;71.83;101187.63;5075016;28;45417;-60
2021/11/12 05:58:47;;;;;;;;;20.75;19.00;;;;;2.92;72.07;101191.03;5075471;28;56752;-61
2021/11/12 06:01:13;;;;;;;;;21.50;18.75;;;;;2.93;71.73;101198.75;5075857;28;45448;-60
2021/11/12 06:03:39;;;;;;;;;31.25;23.50;;;;;2.93;71.55;101201.34;5075741;28;45290;-61
2021/11/12 06:06:04;;;;;;;;;28.50;19.25;;;;;2.94;71.99;101199.59;5075394;27;53905;-61
2021/11/12 06:08:29;;;;;;;;;25.25;19.50;;;;;2.92;71.81;101193.63;5075983;28;45791;-61
2021/11/12 06:10:55;;;;;;;;;28.25;22.25;;;;;2.91;72.00;101185.03;5075791;28;45231;-61
2021/11/12 06:13:21;;;;;;;;;24.25;19.00;;;;;2.92;72.11;101188.44;5073554;27;66603;-61
2021/11/12 06:15:47;;;;;;;;;25.75;20.75;;;;;2.93;72.23;101201.34;5078492;28;45437;-61
2021/11/12 06:18:13;;;;;;;;;25.25;20.75;;;;;2.92;72.08;101197.06;5079141;27;45362;-60
2021/11/12 06:20:38;;;;;;;;;33.25;23.25;;;;;2.91;72.31;101192.81;5077588;27;45180;-61
2021/11/12 06:23:04;;;;;;;;;34.50;23.00;;;;;2.94;71.94;101194.41;5077882;28;74265;-60
2021/11/12 06:25:29;;;;;;;;;26.75;22.00;;;;;2.94;72.42;101197.00;5078715;27;45921;-61
2021/11/12 06:27:55;;;;;;;;;25.75;24.25;;;;;2.96;72.55;101196.00;5078873;28;45292;-61
2021/11/12 06:30:20;;;;;;;;;31.50;24.00;;;;;2.99;72.31;101208.03;5079031;27;45662;-61
2021/11/12 06:32:45;;;;;;;;;28.50;23.50;;;;;3.04;72.57;101207.81;5077947;27;64094;-60
2021/11/12 06:35:11;;;;;;;;;25.75;19.75;;;;;3.06;72.45;101198.19;5078663;27;45693;-61
2021/11/12 06:37:36;;;;;;;;;30.25;25.75;;;;;3.09;72.08;101191.13;5076369;28;67008;-60
2021/11/12 06:40:03;;;;;;;;;31.25;28.50;;;;;3.13;72.18;101197.00;5077977;27;58174;-60
2021/11/12 06:42:32;;;;;;;;;36.25;30.25;;;;;3.10;72.32;101195.41;5077210;28;45384;-61
2021/11/12 06:50:42;;;;;;;;;37.50;30.00;;;;;3.16;72.26;101190.84;5074620;27;45154;-60
2021/11/12 06:53:07;;;;;;;;;33.25;28.25;;;;;3.16;72.48;101196.03;5076506;28;61556;-61
2021/11/12 06:55:33;;;;;;;;;36.75;29.00;;;;;3.20;71.98;101198.41;5077596;28;70112;-61
2021/11/12 06:57:58;;;;;;;;;34.25;28.50;;;;;3.21;71.91;101188.84;5077250;27;45832;-61
2021/11/12 07:00:24;;;;;;;;;41.50;35.00;;;;;3.20;71.94;101187.16;5078412;27;45216;-60
2021/11/12 07:02:49;;;;;;;;;36.00;30.00;;;;;3.17;72.12;101182.13;5077807;28;64224;-61
2021/11/12 07:05:15;;;;;;;;;34.25;29.00;;;;;3.14;72.14;101183.09;5078221;28;45278;-61
2021/11/12 07:07:41;;;;;;;;;30.25;26.50;;;;;3.14;72.13;101193.50;5078456;27;45210;-61
2021/11/12 07:10:07;;;;;;;;;34.25;31.00;;;;;3.13;72.12;101189.22;5078381;27;45231;-61
2021/11/12 07:12:32;;;;;;;;;33.25;28.25;;;;;3.14;72.23;101188.28;5078210;28;46176;-61
2021/11/12 07:14:58;;;;;;;;;32.00;28.25;;;;;3.14;72.17;101183.09;5078207;27;45251;-61
2021/11/12 07:17:23;;;;;;;;;39.00;29.00;;;;;3.16;72.34;101193.44;5077677;27;52537;-61
2021/11/12 07:19:49;;;;;;;;;36.75;30.00;;;;;3.17;72.39;101200.31;5077872;27;45621;-60
2021/11/12 07:22:15;;;;;;;;;28.25;25.50;;;;;3.21;72.29;101199.22;5077920;28;45566;-60
2021/11/12 07:24:40;;;;;;;;;26.50;23.75;;;;;3.21;71.96;101184.50;5077942;28;45436;-60
2021/11/12 07:27:07;;;;;;;;;32.75;25.50;;;;;3.21;71.90;101175.84;5074874;28;46752;-61
2021/11/12 07:29:33;;;;;;;;;33.75;24.75;;;;;3.19;72.07;101180.28;5077815;28;45299;-61
2021/11/12 07:31:59;;;;;;;;;36.50;26.00;;;;;3.19;72.08;101188.06;5076701;28;46226;-60
2021/11/12 07:34:26;;;;;;;;;32.50;19.50;;;;;3.17;72.05;101182.13;5077782;27;45401;-60
2021/11/12 07:36:54;;;;;;;;;36.25;27.50;;;;;3.15;72.12;101183.97;5077812;28;45174;-60
2021/11/12 07:39:25;;;;;;;;;31.75;21.00;;;;;3.15;72.23;101189.97;5076532;27;45616;-61
2021/11/12 07:44:53;;;;;;;;;22.25;20.00;;;;;3.16;72.19;101186.47;5077746;27;45814;-61
2021/11/12 07:47:22;;;;;;;;;26.75;20.25;;;;;3.18;72.14;101163.03;5077412;28;45307;-61
2021/11/12 07:49:51;;;;;;;;;29.00;22.25;;;;;3.21;72.08;101163.72;5077747;28;45297;-61
2021/11/12 07:52:21;;;;;;;;;28.00;19.25;;;;;3.23;71.87;101164.50;5077642;28;46469;-60
2021/11/12 07:54:47;;;;;;;;;23.00;17.25;;;;;3.25;71.94;101161.81;5077591;27;45387;-60
2021/11/12 07:57:12;;;;;;;;;22.50;18.00;;;;;3.28;71.91;101158.25;5077704;28;45394;-61
2021/11/12 07:59:38;;;;;;;;;29.50;20.00;;;;;3.26;71.94;101153.97;5077648;28;45366;-61
2021/11/12 08:02:04;;;;;;;;;21.75;17.00;;;;;3.25;71.90;101152.28;5077478;28;45544;-60
2021/11/12 08:04:30;;;;;;;;;22.25;17.75;;;;;3.25;72.23;101141.03;5077574;28;45337;-61
2021/11/12 08:06:56;;;;;;;;;23.50;18.75;;;;;3.27;72.04;101152.19;5077499;28;45339;-61
2021/11/12 08:09:25;;;;;;;;;36.25;28.75;;;;;3.28;72.14;101151.28;5077336;28;45578;-60
2021/11/12 08:12:05;;;;;;;;;22.25;17.50;;;;;3.26;72.01;101146.16;5077214;28;45370;-60
2021/11/12 08:25:43;;;;;;;;;28.50;18.75;;;;;3.36;72.08;101198.50;5072967;27;45407;-61
2021/11/12 08:33:38;;;;;;;;;25.75;24.25;;;;;3.48;72.77;101178.88;5076738;27;45416;-61
2021/11/12 08:49:04;;;;;;;;;28.00;20.50;;;;;3.77;72.62;101163.63;5054233;28;45470;-61
2021/11/12 08:51:34;;;;;;;;;30.50;25.50;;;;;3.82;72.60;101161.66;5063983;28;45495;-61
2021/11/12 08:54:01;;;;;;;;;31.75;24.50;;;;;3.87;72.36;101166.59;5069778;28;45591;-61
2021/11/12 08:56:27;;;;;;;;;24.00;20.25;;;;;3.90;72.14;101165.63;5072256;28;45426;-61
2021/11/12 08:58:52;;;;;;;;;28.25;22.00;;;;;3.94;72.15;101151.56;5075347;28;45447;-60
2021/11/12 09:01:18;;;;;;;;;36.25;26.00;;;;;3.96;72.05;101160.13;5073898;28;45631;-60
2021/11/12 09:03:44;;;;;;;;;26.75;21.75;;;;;3.98;72.27;101172.13;5073624;28;45723;-61
2021/11/12 09:06:10;;;;;;;;;32.00;23.50;;;;;4.01;72.24;101174.56;5072865;28;45490;-61
2021/11/12 09:08:36;;;;;;;;;30.25;27.00;;;;;4.07;72.27;101167.38;5072622;27;45281;-60
2021/11/12 09:11:03;;;;;;;;;40.00;28.50;;;;;4.12;72.24;101165.38;5073735;28;45460;-61
2021/11/12 09:13:33;;;;;;;;;39.50;28.75;;;;;4.16;72.34;101164.31;5072448;27;46162;-61
2021/11/12 09:16:06;;;;;;;;;48.00;37.00;;;;;4.17;72.20;101171.19;5072249;27;45469;-61
2021/11/12 09:18:32;;;;;;;;;40.25;37.50;;;;;4.18;72.21;101175.47;5071436;28;45501;-61
2021/11/12 09:20:57;;;;;;;;;48.00;37.25;;;;;4.23;72.49;101170.00;5071933;28;45636;-61
2021/11/12 09:23:22;;;;;;;;;41.00;34.75;;;;;4.29;71.91;101173.13;5071179;28;51120;-61
2021/11/12 09:25:48;;;;;;;;;40.25;31.75;;;;;4.30;72.02;101177.41;5070818;28;66302;-61
2021/11/12 09:28:13;;;;;;;;;47.00;31.00;;;;;4.33;71.97;101175.56;5073530;28;45420;-61
2021/11/12 09:30:39;;;;;;;;;58.00;42.50;;;;;4.35;72.04;101173.72;5073582;27;45524;-61
2021/11/12 09:33:05;;;;;;;;;43.75;30.75;;;;;4.35;72.13;101185.00;5073892;28;45437;-61
2021/11/12 09:35:30;;;;;;;;;45.75;36.50;;;;;4.36;72.07;101185.81;5071443;28;45487;-61
2021/11/12 09:37:56;;;;;;;;;44.25;36.75;;;;;4.37;71.82;101179.69;5073342;28;45528;-61
2021/11/12 09:40:21;;;;;;;;;46.50;36.75;;;;;4.37;72.02;101177.09;5068698;27;67808;-61
2021/11/12 09:42:47;;;;;;;;;48.25;38.25;;;;;4.38;72.17;101178.78;5073342;27;45461;-61
2021/11/12 09:45:13;;;;;;;;;55.50;41.00;;;;;4.41;71.98;101168.22;5072620;28;45363;-61
2021/11/12 09:47:39;;;;;;;;;53.75;38.75;;;;;4.39;71.82;101162.25;5071423;28;45392;-60
2021/11/12 09:50:07;;;;;;;;;47.75;36.50;;;;;4.39;72.16;101147.50;5074459;27;45402;-61
2021/11/12 09:52:32;;;;;;;;;40.50;33.75;;;;;4.39;71.84;101146.63;5076565;27;46482;-61
2021/11/12 09:54:58;;;;;;;;;50.75;37.50;;;;;4.34;72.04;101144.28;5074614;27;63020;-61
2021/11/12 09:57:24;;;;;;;;;51.00;37.00;;;;;4.32;72.34;101140.94;5075641;27;45493;-61
2021/11/12 09:59:50;;;;;;;;;43.00;37.00;;;;;4.36;72.44;101144.19;5076583;27;45539;-61
2021/11/12 10:02:16;;;;;;;;;41.00;35.25;;;;;4.37;73.07;101148.47;5073233;27;46868;-61
2021/11/12 10:04:43;;;;;;;;;42.75;33.00;;;;;4.41;72.94;101137.00;5075345;27;45572;-61
2021/11/12 10:07:11;;;;;;;;;43.50;35.00;;;;;4.44;73.18;101124.69;5076899;28;45374;-61
2021/11/12 10:09:36;;;;;;;;;37.75;32.25;;;;;4.48;72.98;101114.94;5076242;27;45506;-61
2021/11/12 10:12:02;;;;;;;;;39.25;33.00;;;;;4.52;72.92;101110.38;5074575;27;65986;-61
2021/11/12 10:17:18;;;;;;;;;40.75;37.25;;;;;4.59;73.49;101101.31;5076648;28;45374;-61
2021/11/12 10:19:52;;;;;;;;;40.00;33.75;;;;;4.61;73.29;101104.69;5059767;28;45543;-61
2021/11/12 10:22:22;;;;;;;;;39.00;30.75;;;;;4.67;73.25;101099.16;5073218;28;46378;-60
2021/11/12 10:24:48;;;;;;;;;43.00;35.50;;;;;4.72;73.66;101088.50;5076803;28;46117;-61
2021/11/12 10:27:15;;;;;;;;;42.00;33.75;;;;;4.81;73.74;101093.19;5075128;27;45477;-61
2021/11/12 10:29:46;;;;;;;;;40.50;32.75;;;;;4.89;73.38;101093.59;5076391;28;45445;-61
2021/11/12 10:32:22;;;;;;;;;41.50;30.50;;;;;4.97;73.44;101105.34;5076592;27;46491;-60
2021/11/12 10:34:49;;;;;;;;;34.00;30.75;;;;;5.07;73.37;101095.25;5076936;28;45779;-61
2021/11/12 10:37:21;;;;;;;;;39.75;34.25;;;;;5.19;73.44;101084.16;5076687;28;45484;-61
2021/11/12 10:39:51;;;;;;;;;30.50;27.25;;;;;5.32;73.47;101081.66;5076547;28;45460;-61
2021/11/12 10:42:20;;;;;;;;;39.50;32.50;;;;;5.48;73.25;101074.66;5076227;28;47115;-61
2021/11/12 10:44:47;;;;;;;;;37.25;31.00;;;;;5.65;72.99;101073.66;5071463;28;45503;-60
2021/11/12 10:47:13;;;;;;;;;45.00;32.00;;;;;5.82;72.76;101058.78;5074672;28;45421;-61
2021/11/12 10:49:52;;;;;;;;;42.50;35.75;;;;;6.01;72.51;101063.75;5074396;28;45716;-61
2021/11/12 10:52:22;;;;;;;;;46.75;35.50;;;;;6.18;72.44;101064.50;5075775;27;45420;-61
2021/11/12 10:54:56;;;;;;;;;45.00;33.50;;;;;6.35;72.12;101071.28;5074980;27;45388;-61
2021/11/12 10:57:33;;;;;;;;;53.75;38.00;;;;;6.49;71.92;101075.63;5074427;28;45308;-60
2021/11/12 11:00:05;;;;;;;;;52.75;37.50;;;;;6.65;71.47;101076.34;5075698;27;45527;-61
2021/11/12 11:02:42;;;;;;;;;45.00;35.00;;;;;6.77;71.38;101061.66;5076226;28;45441;-61
2021/11/12 11:05:13;;;;;;;;;40.00;34.75;;;;;6.89;71.02;101044.34;5074736;28;46482;-62
2021/11/12 11:07:39;;;;;;;;;40.00;31.75;;;;;7.02;70.79;101030.50;5075069;28;45485;-61
2021/11/12 11:10:07;;;;;;;;;44.50;35.00;;;;;7.11;70.48;101001.16;5075764;28;45560;-61
2021/11/12 11:12:41;;;;;;;;;46.25;37.25;;;;;7.24;69.95;100996.78;5074856;28;45280;-62
2021/11/12 11:15:24;;;;;;;;;46.25;34.50;;;;;7.35;69.65;100993.44;5075928;28;45358;-61
2021/11/12 11:18:20;;;;;;;;;38.75;33.25;;;;;7.47;69.11;100996.16;5075494;28;45463;-61
2021/11/12 11:21:43;;;;;;;;;41.50;33.00;;;;;7.57;68.88;100995.44;5049436;28;45539;-61
2021/11/12 11:24:07;;;;;;;;;48.75;37.75;;;;;7.70;68.57;100989.34;5072609;28;45485;-61
2021/11/12 11:26:46;;;;;;;;;48.50;38.00;;;;;7.81;68.50;101004.31;5075511;28;45484;-61
2021/11/12 11:29:16;;;;;;;;;46.25;38.00;;;;;7.92;68.29;100995.72;5073400;27;45414;-61
2021/11/12 11:31:41;;;;;;;;;41.75;36.25;;;;;8.03;68.14;100995.78;5076048;28;45419;-61
2021/11/12 11:34:07;;;;;;;;;45.75;36.50;;;;;8.12;68.05;101000.38;5075060;28;75581;-61
2021/11/12 11:36:37;;;;;;;;;50.75;36.75;;;;;8.23;68.26;101012.69;5075786;27;46355;-61
2021/11/12 11:39:05;;;;;;;;;42.50;34.50;;;;;8.35;67.84;101004.91;5074102;28;45518;-61
2021/11/12 11:41:31;;;;;;;;;43.50;31.75;;;;;8.45;67.55;101001.53;5075583;27;45544;-61
2021/11/12 11:43:57;;;;;;;;;58.75;43.75;;;;;8.56;67.18;100999.94;5074395;27;46211;-61
2021/11/12 11:46:26;;;;;;;;;44.50;36.00;;;;;8.65;67.12;100999.28;5075070;28;45395;-61
2021/11/12 11:48:57;;;;;;;;;49.75;40.00;;;;;8.76;67.58;101007.19;5074755;28;45534;-61
2021/11/12 11:51:30;;;;;;;;;48.75;36.75;;;;;8.88;67.00;101009.88;5074556;27;45422;-61
2021/11/12 11:54:04;;;;;;;;;52.75;40.50;;;;;8.99;66.70;101020.41;5075283;27;45519;-61
2021/11/12 11:56:34;;;;;;;;;49.75;38.00;;;;;9.10;66.63;101024.81;5074992;28;45517;-61
2021/11/12 11:59:00;;;;;;;;;50.50;39.00;;;;;9.19;65.84;101018.91;5075059;28;45441;-61
2021/11/12 12:01:34;;;;;;;;;73.25;56.25;;;;;9.28;65.24;101014.75;5072987;28;45406;-61
2021/11/12 12:04:05;;;;;;;;;52.00;40.25;;;;;9.37;65.00;101015.81;5071644;28;45501;-62
2021/11/12 12:06:30;;;;;;;;;48.25;39.25;;;;;9.40;63.99;101017.41;5075312;28;45662;-61
2021/11/12 12:09:05;;;;;;;;;52.00;39.00;;;;;9.44;64.21;101013.59;5074322;27;63814;-61
2021/11/12 12:11:34;;;;;;;;;49.25;38.00;;;;;9.46;63.90;101011.69;5070491;28;45747;-61
2021/11/12 12:14:29;;;;;;;;;52.00;39.75;;;;;9.51;63.80;101006.94;5071155;28;45991;-61
2021/11/12 12:17:10;;;;;;;;;49.00;39.00;;;;;9.56;63.20;100998.69;5070709;28;45434;-61
2021/11/12 12:19:43;;;;;;;;;48.50;36.25;;;;;9.59;63.08;100999.28;5073314;28;45476;-61
2021/11/12 13:22:39;;;;;;;;;50.50;41.00;;;;;10.33;60.69;100900.72;5069259;28;46274;-61
2021/11/12 13:25:07;;;;;;;;;46.25;35.25;;;;;10.36;60.92;100915.41;5076268;27;45460;-61
2021/11/12 13:27:32;;;;;;;;;46.75;38.50;;;;;10.39;61.06;100909.94;5077197;27;45430;-61
2021/11/12 13:29:58;;;;;;;;;50.25;39.75;;;;;10.43;61.18;100894.75;5076331;27;45524;-61
2021/11/12 13:32:23;;;;;;;;;47.00;37.75;;;;;10.47;61.12;100880.41;5075772;28;46308;-61
2021/11/12 13:34:48;;;;;;;;;56.50;47.00;;;;;10.52;60.85;100884.31;5075619;28;69728;-61
2021/11/12 13:37:22;;;;;;;;;58.25;46.50;;;;;10.56;61.09;100870.94;5075463;28;45754;-61
2021/11/12 13:40:10;;;;;;;;;48.00;38.50;;;;;10.61;60.71;100864.31;5076346;27;45239;-61
2021/11/12 13:42:42;;;;;;;;;53.75;40.75;;;;;10.65;60.96;100872.78;5076506;28;45418;-62
2021/11/12 13:45:16;;;;;;;;;48.50;37.00;;;;;10.69;60.75;100875.03;5076101;27;45521;-61
2021/11/12 13:47:42;;;;;;;;;44.00;35.00;;;;;10.76;61.00;100874.53;5076340;28;45466;-61
2021/11/12 13:50:08;;;;;;;;;45.25;35.75;;;;;10.80;60.79;100876.75;5076385;28;45654;-61
2021/11/12 13:52:42;;;;;;;;;40.75;35.00;;;;;10.82;61.27;100864.31;5077182;28;45437;-61
2021/11/12 13:55:13;;;;;;;;;40.25;34.00;;;;;10.89;61.29;100861.16;5076001;27;45308;-61
2021/11/12 13:57:45;;;;;;;;;51.50;39.25;;;;;10.93;61.11;100859.94;5077505;28;45399;-62
2021/11/12 14:00:11;;;;;;;;;46.00;38.50;;;;;10.96;60.98;100857.06;5059152;28;45477;-61
2021/11/12 14:03:04;;;;;;;;;51.50;40.25;;;;;11.02;61.24;100853.91;5076712;28;52392;-61
2021/11/12 14:05:30;;;;;;;;;52.25;41.25;;;;;11.04;61.29;100840.63;5076588;28;45496;-61
2021/11/12 14:08:10;;;;;;;;;54.75;42.50;;;;;11.05;61.28;100843.13;5076629;28;45434;-61
2021/11/12 14:10:44;;;;;;;;;47.75;38.25;;;;;11.10;61.33;100854.09;5073500;28;45464;-61
2021/11/12 14:13:11;;;;;;;;;50.50;39.25;;;;;11.19;61.61;100849.81;5077021;28;45601;-61
2021/11/12 14:15:40;;;;;;;;;52.00;40.25;;;;;11.34;61.52;100852.09;5076015;28;45459;-61
2021/11/12 14:24:24;;;;;;;;;47.50;38.00;;;;;11.39;60.65;100834.94;5075124;27;45493;-61
2021/11/12 14:35:24;;;;;;;;;52.00;42.25;;;;;11.37;60.90;100826.34;5074974;28;45560;-61
2021/11/12 14:43:31;;;;;;;;;43.00;34.00;;;;;11.32;61.65;100822.47;5053276;28;45434;-61
2021/11/12 14:46:25;;;;;;;;;45.75;37.25;;;;;11.28;61.72;100822.72;5074405;27;45450;-61
2021/11/12 14:51:20;;;;;;;;;45.50;35.75;;;;;11.22;62.49;100830.31;5076482;27;45318;-61
2021/11/12 14:56:25;;;;;;;;;47.00;39.00;;;;;11.11;62.77;100837.34;5072313;28;46021;-62
2021/11/12 14:59:03;;;;;;;;;52.75;41.25;;;;;11.09;62.87;100836.66;5073872;28;46006;-61
2021/11/12 15:01:30;;;;;;;;;63.75;50.25;;;;;11.05;63.36;100842.28;5075515;27;45518;-61
2021/11/12 15:03:55;;;;;;;;;47.75;40.50;;;;;11.05;63.44;100835.25;5076024;27;45581;-61
2021/11/12 15:06:24;;;;;;;;;49.75;40.25;;;;;11.04;63.50;100833.59;5074970;27;65069;-61
2021/11/12 15:08:54;;;;;;;;;47.00;36.25;;;;;11.04;63.55;100832.72;5073775;28;45454;-62
2021/11/12 15:11:23;;;;;;;;;47.25;37.75;;;;;11.01;63.53;100835.63;5076613;27;45469;-61
2021/11/12 15:13:50;;;;;;;;;46.00;36.25;;;;;10.98;63.71;100839.38;5076022;27;45537;-61
2021/11/12 15:18:44;;;;;;;;;38.50;33.25;;;;;10.89;64.05;100846.22;5074682;28;45974;-61
2021/11/12 15:21:14;;;;;;;;;43.50;36.50;;;;;10.83;64.39;100839.69;5076032;28;45643;-61
2021/11/12 15:31:34;;;;;;;;;55.50;44.25;;;;;10.70;64.51;100836.44;5075098;28;45435;-61
2021/11/12 15:33:59;;;;;;;;;59.50;46.25;;;;;10.67;64.65;100834.91;5075007;27;45434;-61
2021/11/12 15:36:25;;;;;;;;;51.50;42.75;;;;;10.66;64.79;100835.03;5072535;28;47588;-61
2021/11/12 15:39:04;;;;;;;;;53.75;42.75;;;;;10.63;65.19;100843.16;5075494;28;45423;-61
2021/11/12 15:44:16;;;;;;;;;47.00;37.75;;;;;10.53;65.30;100836.06;5072942;28;45495;-62
2021/11/12 15:46:45;;;;;;;;;49.00;40.00;;;;;10.47;65.38;100833.09;5074351;28;46249;-62
2021/11/12 15:49:11;;;;;;;;;49.00;37.00;;;;;10.39;66.00;100831.94;5074645;28;45453;-61
2021/11/12 15:51:43;;;;;;;;;44.75;36.00;;;;;10.34;66.10;100854.28;5075710;27;45572;-62
2021/11/12 16:13:37;;;;;;;;;53.00;38.00;;;;;9.68;67.39;100868.34;5074990;28;45381;-61
2021/11/12 16:26:31;;;;;;;;;42.75;37.50;;;;;9.36;68.50;100856.78;5073667;28;45386;-61
2021/11/12 16:31:22;;;;;;;;;51.00;40.00;;;;;9.25;68.81;100847.16;5073929;27;45322;-61
2021/11/12 16:33:48;;;;;;;;;49.75;40.75;;;;;9.22;68.55;100850.00;5074950;28;45529;-61
2021/11/12 16:36:14;;;;;;;;;56.25;41.00;;;;;9.17;68.86;100855.63;5074152;28;45612;-62
2021/11/12 16:38:39;;;;;;;;;53.50;42.50;;;;;9.13;68.93;100856.81;5072599;28;60174;-61
2021/11/12 16:41:18;;;;;;;;;54.25;43.75;;;;;9.10;69.12;100858.81;5072197;28;45482;-62
2021/11/12 16:49:15;;;;;;;;;54.00;43.25;;;;;8.94;69.43;100844.31;5052828;28;46179;-61
2021/11/12 16:54:50;;;;;;;;;56.00;46.00;;;;;8.85;69.75;100845.00;4990864;28;45428;-61
2021/11/12 17:00:39;;;;;;;;;56.75;45.50;;;;;8.81;69.46;100833.09;5025748;28;47254;-61
2021/11/12 17:15:43;;;;;;;;;69.00;54.25;;;;;8.61;69.90;100804.84;5070288;28;45434;-61
2021/11/12 17:47:56;;;;;;;;;78.00;60.00;;;;;8.62;70.62;100766.38;5074747;28;45358;-61
2021/11/12 18:06:33;;;;;;;;;73.50;56.25;;;;;8.71;70.58;100781.38;5037909;28;45488;-61
2021/11/12 21:48:18;;;;;;;;;47.75;38.00;;;;;10.38;73.42;100761.13;5078495;28;45336;-61
2021/11/12 21:50:43;;;;;;;;;49.00;39.75;;;;;10.39;73.49;100763.66;5080048;27;46017;-61
2021/11/12 21:53:08;;;;;;;;;49.25;39.50;;;;;10.44;73.40;100765.06;5079039;27;65437;-61
2021/11/12 21:55:34;;;;;;;;;47.50;38.00;;;;;10.46;73.41;100758.72;5079177;28;63655;-62
2021/11/12 21:58:00;;;;;;;;;48.00;37.75;;;;;10.49;73.53;100749.75;5079037;28;62672;-61